Terminal Aerodrome Forecast
Issued by NWS

Current Version | Previous Version | Text Only | Print | Product List | Glossary On
Versions: 1 2 3 4 5 6 7 8 9 10 11 12 13 14 15
575
FTUS43 KPAH 231120
TAFCGI
TAF
KCGI 231120Z 2312/2412 VRB02KT 1/4SM FG VV002
     FM231330 08006KT P6SM SKC
     FM231600 09007KT P6SM SCT040
     FM240000 10002KT P6SM SKC
     FM240800 00000KT 3SM BR BCFG SKC=

USA.gov is the U.S. government's official web portal to all federal, state and local government web resources and services.